Stockton, Wisconsin
Current Conditions -  °F | °C
As of 6:15 PM on Friday 28 Nov 2014 (Local Time) from KSTE Reporting Station
Overcast Overcast  
Wind Chill:   Ceiling: 6000
Heat Index: 19°   Visibility: 10mi
Dew Point: 15°   Wind: 7mph
Humidity: 88%   Direction: 100°E
Pressure: 29.9"   Gusts: NA
Location:  44.5531°N, 89.5186°W
Report Text: KSTE 290015Z AUTO 10006KT 10SM SCT050 OVC060 M07/M09 A2990 RMK AO2 T10751092
Loading
Personal Weather Stations






























Interactive Weather Map New forecast layout! Learn more

10-Day Weather Forecast

Advertisements
Track Severe Weather on mobile